Language selection

Weather shortcuts

Chaleur - Miscou - western half: Past 24 Hour Conditions

 

St. Anthony Airport

02:30 AM NST 03 March 2024
Disclaimer

This table is a summary of hourly weather conditions for the past 24 hours.
Please note that these observations might not always be representative of weather conditions over their associated marine area.

Date / Time
(NST)
Wind(knots) Conditions Visibility(km) Pressure(kPa) Air tempC) Relative humidity(%) Dew pointC) Wind Chill
03 March 2024
2:30 SW 16 gusts 25 Cloudy 16 102.0 -1 85 -4 -8
1:30 SSW 15 gusts 23 Cloudy 16 102.0 -2 83 -5 -9
0:30 SW 15 Cloudy 16 102.1 -3 81 -5 -10
02 March 2024
23:30 SW 22 gusts 28 Cloudy 16 102.1 -3 81 -6 -12
22:30 SW 18 gusts 23 Cloudy 16 102.2 -4 77 -8 -12
21:30 SW 17 gusts 24 Mostly Cloudy 16 102.2 -4 77 -8 -12
20:30 SW 13 Cloudy 16 102.3 -5 75 -9 -13
19:30 SW 8 Clear 16 102.3 -7 64 -13 -13
18:30 WSW 12 gusts 18 Partly Cloudy 16 102.3 -7 61 -14 -15
17:30 WSW 18 gusts 24 Partly Cloudy 16 102.3 -8 59 -14 -17
16:30 WSW 22 gusts 30 Sunny 16 102.2 -8 59 -14 -18
15:30 WSW 25 gusts 33 Sunny 16 102.2 -8 59 -15 -19
14:30 WSW 26 gusts 32 Sunny 16 102.1 -9 58 -15 -20
13:30 WSW 26 gusts 33 Mainly Sunny 16 102.1 -9 60 -15 -20
12:30 WSW 24 gusts 35 Sunny 16 102.1 -10 58 -17 -21
11:30 WSW 19 gusts 28 Mainly Sunny 16 102.1 -11 57 -18 -21
10:30 WSW 21 gusts 32 Sunny 16 102.0 -12 58 -19 -23
9:30 WSW 22 gusts 28 Partly Cloudy 16 102.0 -12 57 -19 -24
8:30 WSW 20 gusts 26 Mainly Sunny 16 102.0 -13 56 -20 -24
7:30 WSW 16 gusts 25 Cloudy 16 101.9 -13 60 -19 -23
6:30 W 17 gusts 24 Mostly Cloudy 16 101.8 -14 61 -20 -24
5:30 WSW 14 gusts 22 Mostly Cloudy 16 101.7 -14 59 -20 -24
4:30 W 16 gusts 21 Mostly Cloudy 16 101.6 -14 59 -20 -24
3:30 WSW 14 gusts 23 Mostly Cloudy 16 101.6 -14 59 -20 -24
2:30 W 17 gusts 24 Mostly Cloudy 16 101.5 -14 57 -21 -25

Zoom-in to make a selection

Map of Atlantic - Newfoundland marine weather areas Banquereau - 44139 East Chedabucto Bay – 44488 West Chedabucto Bay – 44489 Blanc-Sablon Airport Cap Whittle Chevery Natashquan Airport Heath Point Îles de la Madeleine Airport Miscou Island Eskasoni (First Nations) Grand Étang Ingonish Beach North Mountain St.Paul Island J.A. Douglas McCurdy Sydney Airport Charlottetown Airport East Point North Cape Argentia Berry Hill Bonavista Burgeo Cape Race Corner Brook Daniel's Harbour Englee Ferolle Point La Scie Port aux Basques Sagona Island St. Anthony Airport St. John's Int'l Airport St. Lawrence Stephenville Airport Twillingate Winterland Branch Hill Wreckhouse Grates Cove Pool's Island Marticot Island Long Pond Cartwright Airport Mary's Harbour
Legend:
buoy Buoy
land station Land Station

Atlantic - Newfoundland Area

Another Region

Date modified: